Time;durP1;ratioP1;P1;durP2;ratioP2;P2;SDS_P1;SDS_P2;PMS_P1;PMS_P2;Temp;Humidity;BMP_temperature;BMP_pressure;BME280_temperature;BME280_humidity;BME280_pressure;Samples;Min_cycle;Max_cycle;Signal;HPM_P1;HPM_P2
2021/07/03 00:01:04;;;;;;;;;;;12.70;99.90;;;;;;4996303;28;20315;-83
2021/07/03 00:03:30;;;;;;;;;;;12.70;99.90;;;;;;4997613;28;19909;-84
2021/07/03 00:05:55;;;;;;;;;;;12.70;99.90;;;;;;4997553;28;19910;-83
2021/07/03 00:08:23;;;;;;;;;;;12.70;99.90;;;;;;4997192;28;19914;-84
2021/07/03 00:10:49;;;;;;;;;;;12.60;99.90;;;;;;4995357;28;20287;-84
2021/07/03 00:13:14;;;;;;;;;;;12.60;99.90;;;;;;4997383;28;19909;-84
2021/07/03 00:15:40;;;;;;;;;;;12.60;99.90;;;;;;4997285;28;19917;-83
2021/07/03 00:18:05;;;;;;;;;;;12.60;99.90;;;;;;4996962;28;19914;-83
2021/07/03 00:20:31;;;;;;;;;;;12.60;99.90;;;;;;4997233;28;19977;-84
2021/07/03 00:22:56;;;;;;;;;;;12.60;99.90;;;;;;4997226;28;20004;-84
2021/07/03 00:25:22;;;;;;;;;;;12.60;99.90;;;;;;4997171;28;20307;-84
2021/07/03 00:27:48;;;;;;;;;;;12.50;99.90;;;;;;5014453;28;19996;-84
2021/07/03 00:30:13;;;;;;;;;;;12.50;99.90;;;;;;4996971;28;19967;-84
2021/07/03 00:32:39;;;;;;;;;;;12.50;99.90;;;;;;5014675;28;19909;-84
2021/07/03 00:35:06;;;;;;;;;;;12.50;99.90;;;;;;4997005;28;19956;-84
2021/07/03 00:37:31;;;;;;;;;;;12.40;99.90;;;;;;4996671;28;20037;-84
2021/07/03 00:39:57;;;;;;;;;;;12.40;99.90;;;;;;4996718;28;19922;-84
2021/07/03 00:42:22;;;;;;;;;;;12.40;99.90;;;;;;4996801;28;20356;-84
2021/07/03 00:44:48;;;;;;;;;;;12.40;99.90;;;;;;4996642;28;19956;-83
2021/07/03 00:47:13;;;;;;;;;;;12.40;99.90;;;;;;4996575;28;19917;-84
2021/07/03 00:49:39;;;;;;;;;;;12.30;99.90;;;;;;4996670;28;19917;-85
2021/07/03 00:52:06;;;;;;;;;;;12.20;99.90;;;;;;4996682;28;20390;-84
2021/07/03 00:54:35;;;;;;;;;;;12.20;99.90;;;;;;4996241;28;19955;-83
2021/07/03 00:57:01;;;;;;;;;;;12.20;99.90;;;;;;5013686;28;19913;-84
2021/07/03 00:59:31;;;;;;;;;;;12.20;99.90;;;;;;4996513;28;20390;-84
2021/07/03 01:01:57;;;;;;;;;;;12.20;99.90;;;;;;4996593;28;19914;-84
2021/07/03 01:04:22;;;;;;;;;;;12.20;99.90;;;;;;4996495;28;20395;-84
2021/07/03 01:06:48;;;;;;;;;;;12.20;99.90;;;;;;4996139;28;20360;-84
2021/07/03 01:09:13;;;;;;;;;;;12.10;99.90;;;;;;4996355;28;19917;-84
2021/07/03 01:11:39;;;;;;;;;;;12.00;99.90;;;;;;4995772;28;19909;-84
2021/07/03 01:14:04;;;;;;;;;;;11.90;99.90;;;;;;4996191;28;19909;-83
2021/07/03 01:16:30;;;;;;;;;;;11.90;99.90;;;;;;5013418;28;19914;-83
2021/07/03 01:18:55;;;;;;;;;;;11.90;99.90;;;;;;4996029;28;19956;-84
2021/07/03 01:21:22;;;;;;;;;;;11.90;99.90;;;;;;4996194;28;19930;-84
2021/07/03 01:23:47;;;;;;;;;;;11.90;99.90;;;;;;4995983;28;19910;-84
2021/07/03 01:26:13;;;;;;;;;;;11.90;99.90;;;;;;4995773;28;20033;-84
2021/07/03 01:28:38;;;;;;;;;;;11.90;99.90;;;;;;5013502;28;19910;-83
2021/07/03 01:31:04;;;;;;;;;;;11.90;99.90;;;;;;4995874;28;19917;-84
2021/07/03 01:33:30;;;;;;;;;;;11.90;99.90;;;;;;4996008;28;19909;-84
2021/07/03 01:35:55;;;;;;;;;;;11.90;99.90;;;;;;4995197;28;19909;-84
2021/07/03 01:38:22;;;;;;;;;;;11.80;99.90;;;;;;4995664;28;20523;-84
2021/07/03 01:40:48;;;;;;;;;;;11.80;99.90;;;;;;4995911;28;19957;-84
2021/07/03 01:43:17;;;;;;;;;;;11.80;99.90;;;;;;5013339;28;19909;-84
2021/07/03 01:45:43;;;;;;;;;;;11.80;99.90;;;;;;4995679;28;19909;-84
2021/07/03 01:48:08;;;;;;;;;;;11.70;99.90;;;;;;4995441;28;19916;-85
2021/07/03 01:50:34;;;;;;;;;;;11.70;99.90;;;;;;4995637;28;20363;-83
2021/07/03 01:52:59;;;;;;;;;;;11.70;99.90;;;;;;4995516;28;19956;-83
2021/07/03 01:55:25;;;;;;;;;;;11.70;99.90;;;;;;4995337;28;20372;-84
2021/07/03 01:57:50;;;;;;;;;;;11.70;99.90;;;;;;4995122;28;19913;-84
2021/07/03 02:00:16;;;;;;;;;;;11.70;99.90;;;;;;4995468;28;19996;-84
2021/07/03 02:02:41;;;;;;;;;;;11.70;99.90;;;;;;5012873;28;19914;-84
2021/07/03 02:05:07;;;;;;;;;;;11.60;99.90;;;;;;5012953;28;19910;-83
2021/07/03 02:07:33;;;;;;;;;;;11.50;99.90;;;;;;4994906;28;19909;-84
2021/07/03 02:09:58;;;;;;;;;;;11.60;99.90;;;;;;5012865;28;19909;-84
2021/07/03 02:12:24;;;;;;;;;;;11.50;99.90;;;;;;4995277;28;20028;-84
2021/07/03 02:14:49;;;;;;;;;;;11.60;99.90;;;;;;4995197;28;20368;-84
2021/07/03 02:17:15;;;;;;;;;;;11.50;99.90;;;;;;4994777;28;19913;-84
2021/07/03 02:19:40;;;;;;;;;;;11.50;99.90;;;;;;5012663;28;19909;-84
2021/07/03 02:22:06;;;;;;;;;;;11.50;99.90;;;;;;4995250;28;19913;-84
2021/07/03 02:24:32;;;;;;;;;;;11.50;99.90;;;;;;4994057;28;19914;-84
2021/07/03 02:26:57;;;;;;;;;;;11.50;99.90;;;;;;5012342;28;20336;-84
2021/07/03 02:29:23;;;;;;;;;;;11.40;99.90;;;;;;5012663;28;19909;-84
2021/07/03 02:31:48;;;;;;;;;;;11.40;99.90;;;;;;4994972;28;20399;-84
2021/07/03 02:34:14;;;;;;;;;;;11.40;99.90;;;;;;4994989;28;19909;-84
2021/07/03 02:36:39;;;;;;;;;;;11.40;99.90;;;;;;4994570;28;20287;-84
2021/07/03 02:39:05;;;;;;;;;;;11.40;99.90;;;;;;5012561;28;19910;-84
2021/07/03 02:41:31;;;;;;;;;;;11.50;99.90;;;;;;4995079;28;19910;-84
2021/07/03 02:43:59;;;;;;;;;;;11.50;99.90;;;;;;5012562;28;20372;-84
2021/07/03 02:46:24;;;;;;;;;;;11.50;99.90;;;;;;4994775;28;19910;-84
2021/07/03 02:48:50;;;;;;;;;;;11.50;99.90;;;;;;5012469;28;19914;-84
2021/07/03 02:51:15;;;;;;;;;;;11.50;99.90;;;;;;4994954;28;19925;-84
2021/07/03 02:53:41;;;;;;;;;;;11.50;99.90;;;;;;4994781;28;19913;-84
2021/07/03 02:56:06;;;;;;;;;;;11.50;99.90;;;;;;5012143;28;20364;-85
2021/07/03 02:58:32;;;;;;;;;;;11.40;99.90;;;;;;4994700;28;19920;-84
2021/07/03 03:00:57;;;;;;;;;;;11.40;99.90;;;;;;4994806;28;19972;-84
2021/07/03 03:03:23;;;;;;;;;;;11.40;99.90;;;;;;4994614;28;20471;-84
2021/07/03 03:05:48;;;;;;;;;;;11.30;99.90;;;;;;5012173;28;19945;-84
2021/07/03 03:08:14;;;;;;;;;;;11.40;99.90;;;;;;4994447;28;19930;-84
2021/07/03 03:10:39;;;;;;;;;;;11.30;99.90;;;;;;4994519;28;19960;-84
2021/07/03 03:13:05;;;;;;;;;;;11.30;99.90;;;;;;5012184;28;20296;-84
2021/07/03 03:15:30;;;;;;;;;;;11.20;99.90;;;;;;5012182;28;20288;-84
2021/07/03 03:17:56;;;;;;;;;;;11.20;99.90;;;;;;4994162;28;19917;-83
2021/07/03 03:20:21;;;;;;;;;;;11.20;99.90;;;;;;4994645;28;19920;-84
2021/07/03 03:22:47;;;;;;;;;;;11.20;99.90;;;;;;4994518;28;19909;-84
2021/07/03 03:25:13;;;;;;;;;;;11.10;99.90;;;;;;4994493;28;19910;-83
2021/07/03 03:27:38;;;;;;;;;;;11.00;99.90;;;;;;4994305;28;20273;-84
2021/07/03 03:30:05;;;;;;;;;;;10.90;99.90;;;;;;4994412;28;19916;-84
2021/07/03 03:32:30;;;;;;;;;;;10.80;99.90;;;;;;4994460;28;19961;-84
2021/07/03 03:34:56;;;;;;;;;;;10.90;99.90;;;;;;4994977;28;20429;-84
2021/07/03 03:37:21;;;;;;;;;;;10.90;99.90;;;;;;4997747;28;20016;-85
2021/07/03 03:39:47;;;;;;;;;;;10.90;99.90;;;;;;4997871;28;19910;-85
2021/07/03 03:42:12;;;;;;;;;;;11.00;99.90;;;;;;5015648;28;19909;-85
2021/07/03 03:44:38;;;;;;;;;;;11.00;99.90;;;;;;4997858;28;19963;-84
2021/07/03 03:47:04;;;;;;;;;;;11.00;99.90;;;;;;5015239;28;20051;-84
2021/07/03 03:49:29;;;;;;;;;;;11.00;99.90;;;;;;4997822;28;20399;-84
2021/07/03 03:51:55;;;;;;;;;;;10.90;99.90;;;;;;4997781;28;19909;-83
2021/07/03 03:54:22;;;;;;;;;;;10.90;99.90;;;;;;4997558;28;19910;-84
2021/07/03 03:56:47;;;;;;;;;;;11.00;99.90;;;;;;4997199;28;20374;-84
2021/07/03 03:59:13;;;;;;;;;;;11.10;99.90;;;;;;4997755;28;19909;-84
2021/07/03 04:01:39;;;;;;;;;;;11.10;99.90;;;;;;5015648;28;19982;-85
2021/07/03 04:04:05;;;;;;;;;;;11.20;99.90;;;;;;4997454;28;19957;-85
2021/07/03 04:06:30;;;;;;;;;;;11.20;99.90;;;;;;4997305;28;19909;-84
2021/07/03 04:08:56;;;;;;;;;;;11.20;99.90;;;;;;4997305;28;19910;-84
2021/07/03 04:11:21;;;;;;;;;;;11.20;99.90;;;;;;4997427;28;20311;-84
2021/07/03 04:13:47;;;;;;;;;;;11.30;99.90;;;;;;4997391;28;19916;-84
2021/07/03 04:16:12;;;;;;;;;;;11.40;99.90;;;;;;5014581;28;20372;-84
2021/07/03 04:18:37;;;;;;;;;;;11.40;99.90;;;;;;4997155;28;19909;-84
2021/07/03 04:21:03;;;;;;;;;;;11.60;99.90;;;;;;4997178;28;19909;-84
2021/07/03 04:23:29;;;;;;;;;;;11.70;99.90;;;;;;4996947;28;19960;-84
2021/07/03 04:25:54;;;;;;;;;;;11.70;99.90;;;;;;4996977;28;19910;-83
2021/07/03 04:28:20;;;;;;;;;;;11.70;99.90;;;;;;4996903;28;19932;-84
2021/07/03 04:30:45;;;;;;;;;;;11.70;99.90;;;;;;5014476;28;20556;-84
2021/07/03 04:33:11;;;;;;;;;;;11.70;99.90;;;;;;4996960;28;20394;-83
2021/07/03 04:35:36;;;;;;;;;;;11.80;99.90;;;;;;4997074;28;19910;-84
2021/07/03 04:38:02;;;;;;;;;;;11.90;99.90;;;;;;4996442;28;19913;-84
2021/07/03 04:40:27;;;;;;;;;;;12.00;99.90;;;;;;4996873;28;20284;-84
2021/07/03 04:42:53;;;;;;;;;;;12.20;99.90;;;;;;4996724;28;19915;-84
2021/07/03 04:45:18;;;;;;;;;;;12.20;99.90;;;;;;4996867;28;19909;-84
2021/07/03 04:47:44;;;;;;;;;;;12.30;99.90;;;;;;4995224;28;19916;-84
2021/07/03 04:50:10;;;;;;;;;;;12.40;99.90;;;;;;4996515;28;19917;-84
2021/07/03 04:52:36;;;;;;;;;;;12.50;99.90;;;;;;4996613;28;19916;-85
2021/07/03 04:55:03;;;;;;;;;;;12.60;99.90;;;;;;4996548;28;19999;-85
2021/07/03 04:57:28;;;;;;;;;;;12.60;99.90;;;;;;4996178;28;19914;-84
2021/07/03 04:59:54;;;;;;;;;;;12.70;99.90;;;;;;5014034;28;20005;-85
2021/07/03 05:02:19;;;;;;;;;;;12.70;99.90;;;;;;4996475;28;20008;-85
2021/07/03 05:04:45;;;;;;;;;;;12.80;99.90;;;;;;4996324;28;20434;-85
2021/07/03 05:07:10;;;;;;;;;;;12.80;99.90;;;;;;4996117;28;19910;-85
2021/07/03 05:09:36;;;;;;;;;;;12.90;99.90;;;;;;5013854;28;20008;-85
2021/07/03 05:12:02;;;;;;;;;;;12.90;99.90;;;;;;4996309;28;20291;-84
2021/07/03 05:14:27;;;;;;;;;;;13.00;99.90;;;;;;5013752;28;20364;-84
2021/07/03 05:16:53;;;;;;;;;;;13.10;99.90;;;;;;5013412;28;19913;-85
2021/07/03 05:19:18;;;;;;;;;;;13.10;99.90;;;;;;4995870;28;19917;-84
2021/07/03 05:21:44;;;;;;;;;;;13.30;99.90;;;;;;5013664;28;19910;-84
2021/07/03 05:24:10;;;;;;;;;;;13.30;99.90;;;;;;4995989;28;19910;-84
2021/07/03 05:26:36;;;;;;;;;;;13.50;99.90;;;;;;4995864;28;19916;-85
2021/07/03 05:29:02;;;;;;;;;;;13.60;99.90;;;;;;4995891;28;19971;-84
2021/07/03 05:31:27;;;;;;;;;;;13.90;99.90;;;;;;4995774;28;20439;-84
2021/07/03 05:33:53;;;;;;;;;;;14.10;99.90;;;;;;4995912;28;20028;-85
2021/07/03 05:36:18;;;;;;;;;;;14.30;99.90;;;;;;4995413;28;19910;-85
2021/07/03 05:38:46;;;;;;;;;;;14.60;99.90;;;;;;4995600;28;20364;-85
2021/07/03 05:41:12;;;;;;;;;;;14.90;99.90;;;;;;4995900;28;19913;-84
2021/07/03 05:43:38;;;;;;;;;;;15.20;99.90;;;;;;4995713;28;20300;-85
2021/07/03 05:46:04;;;;;;;;;;;15.50;99.90;;;;;;5013215;28;19917;-86
2021/07/03 05:48:30;;;;;;;;;;;15.90;99.90;;;;;;4995766;28;19917;-84
2021/07/03 05:50:56;;;;;;;;;;;16.20;99.90;;;;;;5013219;28;19910;-84
2021/07/03 05:53:21;;;;;;;;;;;16.60;99.90;;;;;;4995592;28;20379;-84
2021/07/03 05:55:47;;;;;;;;;;;17.00;99.90;;;;;;4995486;28;19992;-84
2021/07/03 05:58:12;;;;;;;;;;;17.30;99.90;;;;;;4994802;28;19918;-85
2021/07/03 06:00:38;;;;;;;;;;;17.50;99.90;;;;;;4995437;28;19910;-85
2021/07/03 06:03:03;;;;;;;;;;;17.70;99.90;;;;;;5013128;28;19910;-85
2021/07/03 06:05:29;;;;;;;;;;;18.10;99.90;;;;;;4995843;28;20360;-84
2021/07/03 06:07:54;;;;;;;;;;;18.30;99.90;;;;;;4995160;28;19910;-85
2021/07/03 06:10:20;;;;;;;;;;;18.70;99.90;;;;;;4995417;28;19910;-84
2021/07/03 06:12:45;;;;;;;;;;;19.10;99.90;;;;;;4995398;28;19964;-85
2021/07/03 06:15:11;;;;;;;;;;;19.50;99.90;;;;;;4995250;28;19917;-84
2021/07/03 06:17:36;;;;;;;;;;;19.90;99.90;;;;;;4994970;28;20327;-84
2021/07/03 06:20:03;;;;;;;;;;;20.30;99.90;;;;;;5012890;28;19909;-85
2021/07/03 06:22:28;;;;;;;;;;;20.50;99.90;;;;;;4995024;28;20360;-85
2021/07/03 06:24:54;;;;;;;;;;;20.90;99.90;;;;;;4995092;28;19910;-85
2021/07/03 06:27:19;;;;;;;;;;;21.30;99.90;;;;;;4994901;28;19916;-85
2021/07/03 06:29:45;;;;;;;;;;;21.40;99.90;;;;;;5012715;28;20265;-86
2021/07/03 06:32:10;;;;;;;;;;;21.60;99.90;;;;;;4995239;28;19953;-85
2021/07/03 06:34:36;;;;;;;;;;;21.90;99.90;;;;;;4995542;28;19997;-85
2021/07/03 06:37:01;;;;;;;;;;;22.10;99.90;;;;;;4994733;28;20001;-85
2021/07/03 06:39:27;;;;;;;;;;;22.20;99.90;;;;;;4995080;28;19909;-86
2021/07/03 06:41:52;;;;;;;;;;;22.60;99.90;;;;;;4994760;28;19916;-86
2021/07/03 06:44:18;;;;;;;;;;;23.00;99.90;;;;;;4994845;28;20368;-85
2021/07/03 06:46:46;;;;;;;;;;;23.30;99.90;;;;;;4995103;28;20283;-85
2021/07/03 06:49:12;;;;;;;;;;;23.40;99.90;;;;;;4995005;28;19910;-85
2021/07/03 06:51:37;;;;;;;;;;;23.40;99.90;;;;;;5012395;28;19918;-85
2021/07/03 06:54:04;;;;;;;;;;;23.40;99.90;;;;;;4994916;28;20394;-85
2021/07/03 06:56:30;;;;;;;;;;;23.40;99.90;;;;;;5011626;28;19940;-85
2021/07/03 06:58:56;;;;;;;;;;;23.50;99.90;;;;;;4994684;28;20364;-86
2021/07/03 07:01:21;;;;;;;;;;;23.50;99.90;;;;;;4994963;28;19914;-85
2021/07/03 07:03:47;;;;;;;;;;;23.90;99.90;;;;;;4994989;28;19957;-85
2021/07/03 07:06:12;;;;;;;;;;;23.70;99.90;;;;;;4994549;28;19913;-85
2021/07/03 07:08:38;;;;;;;;;;;23.50;99.80;;;;;;5012345;28;20279;-85
2021/07/03 07:11:03;;;;;;;;;;;24.00;99.90;;;;;;4997053;28;19909;-86
2021/07/03 07:13:29;;;;;;;;;;;24.20;99.90;;;;;;4998206;28;19952;-86
2021/07/03 07:15:54;;;;;;;;;;;24.50;99.80;;;;;;4998415;28;20364;-85
2021/07/03 07:18:20;;;;;;;;;;;24.40;98.60;;;;;;4998287;28;20314;-85
2021/07/03 07:20:45;;;;;;;;;;;24.70;99.20;;;;;;5015904;28;19910;-85
2021/07/03 07:23:11;;;;;;;;;;;24.50;97.00;;;;;;5015979;28;19910;-85
2021/07/03 07:25:37;;;;;;;;;;;24.20;96.60;;;;;;4998373;28;19960;-85
2021/07/03 07:28:02;;;;;;;;;;;23.90;98.00;;;;;;4997942;28;19913;-85
2021/07/03 07:30:28;;;;;;;;;;;23.70;97.80;;;;;;4997774;28;19914;-85
2021/07/03 07:32:53;;;;;;;;;;;23.60;98.00;;;;;;4998217;28;19917;-88
2021/07/03 07:35:19;;;;;;;;;;;23.70;98.30;;;;;;4998237;28;20360;-85
2021/07/03 07:37:47;;;;;;;;;;;23.90;97.60;;;;;;5014059;28;19914;-87
2021/07/03 07:40:12;;;;;;;;;;;23.90;98.00;;;;;;4998308;28;20345;-86
2021/07/03 07:42:38;;;;;;;;;;;24.20;97.50;;;;;;4997862;28;19909;-87
2021/07/03 07:45:04;;;;;;;;;;;24.60;97.00;;;;;;5015674;28;19910;-86
2021/07/03 07:47:29;;;;;;;;;;;24.80;95.50;;;;;;5015298;28;19909;-86
2021/07/03 07:49:56;;;;;;;;;;;24.80;95.40;;;;;;5015240;28;20410;-86
2021/07/03 07:52:22;;;;;;;;;;;24.90;94.70;;;;;;4997877;28;19914;-86
2021/07/03 07:54:47;;;;;;;;;;;25.40;97.40;;;;;;5015279;28;19910;-85
2021/07/03 07:57:13;;;;;;;;;;;26.00;96.60;;;;;;5014863;28;19913;-85
2021/07/03 07:59:38;;;;;;;;;;;26.60;94.50;;;;;;5015234;28;19982;-85
2021/07/03 08:02:04;;;;;;;;;;;27.20;91.80;;;;;;4997552;28;19915;-85
2021/07/03 08:04:29;;;;;;;;;;;27.50;91.60;;;;;;4997508;28;19909;-84
2021/07/03 08:06:55;;;;;;;;;;;27.70;92.80;;;;;;4997239;28;20395;-85
2021/07/03 08:09:20;;;;;;;;;;;27.70;94.40;;;;;;4997252;28;20280;-85
2021/07/03 08:11:46;;;;;;;;;;;27.70;93.00;;;;;;4997079;28;19913;-86
2021/07/03 08:14:11;;;;;;;;;;;27.70;93.60;;;;;;4997425;28;20012;-85
2021/07/03 08:16:37;;;;;;;;;;;27.70;93.90;;;;;;4997060;28;20376;-85
2021/07/03 08:19:02;;;;;;;;;;;27.70;90.90;;;;;;4997148;28;19909;-85
2021/07/03 08:21:28;;;;;;;;;;;27.30;89.60;;;;;;5013599;28;19910;-86
2021/07/03 08:23:54;;;;;;;;;;;27.40;91.50;;;;;;4997068;28;19967;-86
2021/07/03 08:26:19;;;;;;;;;;;27.20;90.60;;;;;;4997010;28;20000;-84
2021/07/03 08:28:45;;;;;;;;;;;26.90;92.10;;;;;;4996957;28;19916;-84
2021/07/03 08:31:10;;;;;;;;;;;27.00;90.80;;;;;;5014432;28;19918;-85
2021/07/03 08:33:36;;;;;;;;;;;26.90;91.90;;;;;;4997069;28;19955;-84
2021/07/03 08:36:02;;;;;;;;;;;27.20;93.80;;;;;;4996831;28;19972;-84
2021/07/03 08:38:27;;;;;;;;;;;27.50;93.70;;;;;;5014106;28;19913;-84
2021/07/03 08:40:53;;;;;;;;;;;27.90;94.20;;;;;;5014440;28;19917;-84
2021/07/03 08:43:19;;;;;;;;;;;28.00;86.10;;;;;;5014455;28;20051;-84
2021/07/03 08:45:44;;;;;;;;;;;27.80;93.70;;;;;;4996722;28;19963;-84
2021/07/03 08:48:10;;;;;;;;;;;28.20;90.50;;;;;;4996443;28;19952;-85
2021/07/03 08:50:35;;;;;;;;;;;28.30;90.30;;;;;;4996692;28;19909;-85
2021/07/03 08:53:05;;;;;;;;;;;28.50;90.20;;;;;;4995818;28;19909;-85
2021/07/03 08:55:30;;;;;;;;;;;28.70;87.50;;;;;;5014118;28;19909;-85
2021/07/03 08:58:02;;;;;;;;;;;28.70;94.00;;;;;;4996171;28;19940;-84
2021/07/03 09:00:27;;;;;;;;;;;28.80;87.30;;;;;;4996465;28;19999;-84
2021/07/03 09:02:53;;;;;;;;;;;29.00;85.30;;;;;;4996271;28;19980;-84
2021/07/03 09:05:18;;;;;;;;;;;28.60;89.80;;;;;;4996332;28;19925;-84
2021/07/03 09:07:44;;;;;;;;;;;28.80;91.40;;;;;;5013655;28;19941;-84
2021/07/03 09:10:10;;;;;;;;;;;28.90;85.60;;;;;;5013891;28;19916;-84
2021/07/03 09:12:36;;;;;;;;;;;29.10;83.40;;;;;;5013831;28;20360;-84
2021/07/03 09:15:11;;;;;;;;;;;29.30;83.80;;;;;;4996166;28;19955;-84
2021/07/03 09:17:46;;;;;;;;;;;29.40;88.20;;;;;;4995364;28;20000;-84
2021/07/03 09:20:12;;;;;;;;;;;29.30;86.30;;;;;;5006406;28;19909;-84
2021/07/03 09:22:37;;;;;;;;;;;29.40;90.80;;;;;;4996098;28;20356;-84
2021/07/03 09:25:14;;;;;;;;;;;29.40;91.40;;;;;;4996075;28;19913;-84
2021/07/03 09:27:40;;;;;;;;;;;29.50;90.60;;;;;;5013386;28;19909;-85
2021/07/03 09:30:05;;;;;;;;;;;29.40;83.90;;;;;;4995909;28;20386;-85
2021/07/03 09:32:31;;;;;;;;;;;29.60;89.90;;;;;;4995694;28;19924;-85
2021/07/03 09:34:56;;;;;;;;;;;29.80;91.10;;;;;;4995434;28;19909;-85
2021/07/03 09:37:22;;;;;;;;;;;30.20;88.70;;;;;;5013112;28;20311;-85
2021/07/03 09:39:47;;;;;;;;;;;30.30;84.20;;;;;;4995783;28;20000;-85
2021/07/03 09:42:14;;;;;;;;;;;30.40;86.10;;;;;;4995737;28;19910;-85
2021/07/03 09:44:39;;;;;;;;;;;30.60;80.40;;;;;;5013404;28;20392;-84
2021/07/03 09:47:05;;;;;;;;;;;30.30;76.50;;;;;;4992050;28;19945;-85
2021/07/03 09:49:30;;;;;;;;;;;30.10;78.70;;;;;;5008493;28;19909;-85
2021/07/03 09:51:57;;;;;;;;;;;30.10;83.90;;;;;;4995612;28;19909;-85
2021/07/03 09:54:24;;;;;;;;;;;30.10;76.60;;;;;;4995512;28;19913;-84
2021/07/03 09:56:59;;;;;;;;;;;30.20;82.30;;;;;;4995304;28;19921;-85
2021/07/03 09:59:28;;;;;;;;;;;30.20;78.50;;;;;;4995917;28;20311;-85
2021/07/03 10:01:54;;;;;;;;;;;30.40;87.00;;;;;;5013114;28;20407;-85
2021/07/03 10:04:19;;;;;;;;;;;30.60;89.10;;;;;;5013110;28;19910;-84
2021/07/03 10:07:03;;;;;;;;;;;30.80;86.80;;;;;;5012716;28;19952;-85
2021/07/03 10:09:28;;;;;;;;;;;31.00;81.20;;;;;;5012987;28;20280;-85
2021/07/03 10:11:56;;;;;;;;;;;31.10;77.60;;;;;;4995605;28;19913;-84
2021/07/03 10:14:22;;;;;;;;;;;31.10;79.30;;;;;;4995375;28;19963;-85
2021/07/03 10:16:58;;;;;;;;;;;30.80;80.50;;;;;;5012707;28;19957;-86
2021/07/03 10:19:29;;;;;;;;;;;31.00;75.20;;;;;;4995781;28;20363;-85
2021/07/03 10:22:09;;;;;;;;;;;31.30;80.20;;;;;;5013336;28;19967;-85
2021/07/03 10:24:40;;;;;;;;;;;31.60;79.30;;;;;;5013023;28;20388;-86
2021/07/03 10:27:14;;;;;;;;;;;31.70;79.90;;;;;;5012848;28;19909;-86
2021/07/03 10:29:40;;;;;;;;;;;31.90;69.90;;;;;;5018599;28;19965;-83
2021/07/03 10:32:05;;;;;;;;;;;31.70;82.00;;;;;;5021140;28;20005;-84
2021/07/03 10:34:32;;;;;;;;;;;32.00;76.30;;;;;;5033283;28;19913;-85
2021/07/03 10:36:59;;;;;;;;;;;32.20;74.10;;;;;;5014495;28;19921;-87
2021/07/03 10:39:31;;;;;;;;;;;32.40;76.80;;;;;;4997586;28;20368;-86
2021/07/03 10:41:57;;;;;;;;;;;32.60;78.50;;;;;;4997292;28;20008;-84
2021/07/03 10:44:22;;;;;;;;;;;32.60;70.50;;;;;;4998141;28;19956;-85
2021/07/03 10:46:48;;;;;;;;;;;32.60;69.20;;;;;;4999568;28;19960;-85
2021/07/03 10:49:28;;;;;;;;;;;32.50;67.50;;;;;;4997659;28;19909;-85
2021/07/03 10:51:54;;;;;;;;;;;32.20;65.10;;;;;;4997611;28;19992;-85
2021/07/03 10:54:24;;;;;;;;;;;31.90;74.70;;;;;;4999278;28;19963;-85
2021/07/03 10:56:50;;;;;;;;;;;32.10;73.20;;;;;;4998860;28;19949;-85
2021/07/03 10:59:17;;;;;;;;;;;32.10;71.50;;;;;;4998543;28;20013;-85
2021/07/03 11:01:43;;;;;;;;;;;32.20;72.00;;;;;;4998672;28;19979;-85
2021/07/03 11:04:13;;;;;;;;;;;31.80;65.30;;;;;;4998543;28;19909;-86
2021/07/03 11:06:43;;;;;;;;;;;31.90;66.50;;;;;;4998941;28;19917;-86
2021/07/03 11:09:19;;;;;;;;;;;31.80;70.80;;;;;;4998943;28;19909;-85
2021/07/03 11:11:45;;;;;;;;;;;32.00;65.90;;;;;;4998913;28;19917;-85
2021/07/03 11:14:15;;;;;;;;;;;32.00;68.60;;;;;;4998816;28;19909;-84
2021/07/03 11:16:41;;;;;;;;;;;31.70;64.40;;;;;;4998388;28;19917;-86
2021/07/03 11:19:06;;;;;;;;;;;31.40;69.90;;;;;;5016175;28;20011;-85
2021/07/03 11:21:32;;;;;;;;;;;31.40;69.40;;;;;;5016207;28;19920;-86
2021/07/03 11:23:58;;;;;;;;;;;31.30;69.30;;;;;;4998962;28;20000;-85
2021/07/03 11:26:24;;;;;;;;;;;31.10;72.60;;;;;;4998984;28;19916;-85
2021/07/03 11:28:52;;;;;;;;;;;30.70;64.20;;;;;;4999451;28;19920;-85
2021/07/03 11:31:19;;;;;;;;;;;30.90;70.60;;;;;;5016265;28;19925;-85
2021/07/03 11:33:44;;;;;;;;;;;31.20;73.00;;;;;;4998572;28;19964;-83
2021/07/03 11:36:14;;;;;;;;;;;31.50;68.90;;;;;;5015749;28;19926;-86
2021/07/03 11:38:40;;;;;;;;;;;31.80;74.80;;;;;;4998422;28;19913;-85
2021/07/03 11:41:06;;;;;;;;;;;32.10;70.20;;;;;;4998558;28;19917;-86
2021/07/03 11:43:32;;;;;;;;;;;32.30;63.70;;;;;;4998035;28;19910;-86
2021/07/03 11:45:58;;;;;;;;;;;32.10;69.50;;;;;;5015825;28;19921;-86
2021/07/03 11:48:25;;;;;;;;;;;32.20;67.00;;;;;;5015185;28;19916;-85
2021/07/03 11:51:00;;;;;;;;;;;32.20;69.70;;;;;;4998040;28;20402;-86
2021/07/03 11:53:28;;;;;;;;;;;32.20;62.40;;;;;;4997952;28;19932;-86
2021/07/03 11:55:55;;;;;;;;;;;32.40;68.60;;;;;;4997714;28;19916;-85
2021/07/03 11:58:24;;;;;;;;;;;32.50;67.70;;;;;;4997717;28;19913;-85
2021/07/03 12:00:51;;;;;;;;;;;32.60;69.50;;;;;;4997946;28;20291;-85
2021/07/03 12:03:18;;;;;;;;;;;32.70;62.40;;;;;;5015342;28;19910;-85
2021/07/03 12:05:50;;;;;;;;;;;32.50;59.50;;;;;;4997836;28;20434;-84
2021/07/03 12:08:16;;;;;;;;;;;32.20;65.40;;;;;;4997625;28;19909;-85
2021/07/03 12:10:42;;;;;;;;;;;32.20;64.10;;;;;;4997717;28;20287;-86
2021/07/03 12:13:08;;;;;;;;;;;32.20;60.20;;;;;;4997564;28;19916;-85
2021/07/03 12:15:34;;;;;;;;;;;32.20;63.10;;;;;;4997632;28;19915;-85
2021/07/03 12:18:00;;;;;;;;;;;32.20;64.60;;;;;;4996896;28;19921;-85
2021/07/03 12:20:26;;;;;;;;;;;32.00;65.00;;;;;;4997606;28;19918;-85
2021/07/03 12:22:56;;;;;;;;;;;32.00;62.90;;;;;;4997453;28;19909;-84
2021/07/03 12:25:21;;;;;;;;;;;32.00;58.50;;;;;;4997530;28;19910;-86
2021/07/03 12:27:51;;;;;;;;;;;32.00;57.50;;;;;;4997103;28;19932;-86
2021/07/03 12:30:18;;;;;;;;;;;32.00;64.30;;;;;;4997340;28;20284;-86
2021/07/03 12:32:44;;;;;;;;;;;32.00;60.60;;;;;;5014820;28;19913;-86
2021/07/03 12:35:11;;;;;;;;;;;32.00;67.90;;;;;;4997256;28;19915;-86
2021/07/03 12:37:37;;;;;;;;;;;32.00;67.80;;;;;;5014318;28;20402;-85
2021/07/03 12:40:12;;;;;;;;;;;32.00;59.00;;;;;;4997147;28;20008;-85
2021/07/03 12:42:38;;;;;;;;;;;32.00;59.30;;;;;;4996948;28;20372;-86
2021/07/03 12:45:05;;;;;;;;;;;32.10;59.40;;;;;;4997255;28;19920;-86
2021/07/03 12:47:30;;;;;;;;;;;32.20;59.20;;;;;;4996743;28;19909;-86
2021/07/03 12:49:59;;;;;;;;;;;32.10;59.20;;;;;;4996759;28;19910;-84
2021/07/03 12:52:34;;;;;;;;;;;32.10;58.50;;;;;;4997062;28;19917;-85
2021/07/03 12:55:00;;;;;;;;;;;31.70;59.60;;;;;;4996989;28;19948;-86
2021/07/03 12:57:36;;;;;;;;;;;31.60;67.40;;;;;;5014162;28;19971;-86
2021/07/03 13:00:01;;;;;;;;;;;31.60;61.50;;;;;;4997063;28;20364;-86
2021/07/03 13:02:27;;;;;;;;;;;31.50;60.10;;;;;;4996635;28;19910;-84
2021/07/03 13:04:52;;;;;;;;;;;31.60;59.40;;;;;;4996757;28;19921;-85
2021/07/03 13:07:19;;;;;;;;;;;31.80;59.50;;;;;;4996022;28;19910;-85
2021/07/03 13:09:45;;;;;;;;;;;32.00;55.40;;;;;;4996239;28;20003;-84
2021/07/03 13:12:11;;;;;;;;;;;31.80;56.90;;;;;;4996549;28;19971;-85
2021/07/03 13:14:37;;;;;;;;;;;31.80;62.80;;;;;;5013936;28;19917;-85
2021/07/03 13:17:02;;;;;;;;;;;31.70;56.10;;;;;;4996020;28;19913;-86
2021/07/03 13:19:28;;;;;;;;;;;31.80;57.70;;;;;;4996344;28;19917;-85
2021/07/03 13:21:53;;;;;;;;;;;32.00;56.70;;;;;;4996246;28;20003;-85
2021/07/03 13:24:19;;;;;;;;;;;32.30;62.60;;;;;;5013901;28;19915;-85
2021/07/03 13:26:44;;;;;;;;;;;32.00;55.50;;;;;;4995923;28;19910;-85
2021/07/03 13:29:10;;;;;;;;;;;31.90;58.30;;;;;;4996156;28;20450;-85
2021/07/03 13:31:35;;;;;;;;;;;32.00;61.60;;;;;;4996104;28;19917;-85
2021/07/03 13:34:01;;;;;;;;;;;32.00;57.00;;;;;;4996237;28;20325;-85
2021/07/03 13:36:26;;;;;;;;;;;32.10;60.00;;;;;;4995846;28;20475;-85
2021/07/03 13:38:52;;;;;;;;;;;32.20;58.50;;;;;;5013487;28;20028;-85
2021/07/03 13:41:17;;;;;;;;;;;32.30;61.60;;;;;;4995820;28;20272;-86
2021/07/03 13:43:43;;;;;;;;;;;32.10;57.50;;;;;;4995894;28;19910;-86
2021/07/03 13:46:09;;;;;;;;;;;32.20;64.50;;;;;;4995664;28;19909;-85
2021/07/03 13:48:35;;;;;;;;;;;32.20;57.60;;;;;;4995717;28;19917;-85
2021/07/03 13:51:00;;;;;;;;;;;32.20;67.00;;;;;;4995615;28;19913;-85
2021/07/03 13:53:26;;;;;;;;;;;32.30;63.00;;;;;;5013510;28;19910;-85
2021/07/03 13:55:51;;;;;;;;;;;32.50;60.30;;;;;;4995884;28;19916;-85
2021/07/03 13:58:17;;;;;;;;;;;32.60;56.00;;;;;;5013626;28;19949;-85
2021/07/03 14:00:42;;;;;;;;;;;32.60;54.70;;;;;;5017045;28;19928;-83
2021/07/03 14:03:09;;;;;;;;;;;32.70;57.70;;;;;;5018192;28;20015;-84
2021/07/03 14:05:34;;;;;;;;;;;32.70;59.40;;;;;;5019398;28;19909;-84
2021/07/03 14:08:00;;;;;;;;;;;32.80;54.20;;;;;;4999032;28;19916;-86
2021/07/03 14:10:25;;;;;;;;;;;33.00;60.20;;;;;;4996854;28;19910;-86